Time;durP1;ratioP1;P1;durP2;ratioP2;P2;SDS_P1;SDS_P2;PMS_P1;PMS_P2;Temp;Humidity;BMP_temperature;BMP_pressure;BME280_temperature;BME280_humidity;BME280_pressure;Samples;Min_cycle;Max_cycle;Signal;HPM_P1;HPM_P2
2022/11/21 00:04:38;;;;;;;66.90;29.30;;;;;;;-5.92;73.47;99059.63;209347;1305;139699;-66
2022/11/21 00:09:42;;;;;;;96.90;43.40;;;;;;;-5.84;73.36;99057.91;209369;1295;141214;-66
2022/11/21 00:14:46;;;;;;;101.10;43.00;;;;;;;-5.76;73.67;99054.26;209546;1301;140398;-66
2022/11/21 00:19:49;;;;;;;66.40;29.10;;;;;;;-5.72;73.75;99054.94;209412;1307;139448;-67
2022/11/21 00:24:53;;;;;;;72.50;34.20;;;;;;;-5.78;73.88;99056.15;209352;1307;139379;-68
2022/11/21 00:29:57;;;;;;;81.90;37.20;;;;;;;-5.79;74.11;99046.19;209736;1302;139399;-67
2022/11/21 00:35:01;;;;;;;78.60;38.20;;;;;;;-5.77;74.12;99036.28;209505;1304;139517;-67
2022/11/21 00:40:05;;;;;;;79.50;36.10;;;;;;;-5.71;73.96;99032.83;209402;1300;141952;-68
2022/11/21 00:45:09;;;;;;;77.80;33.30;;;;;;;-5.64;74.21;99029.09;209617;1293;141272;-68
2022/11/21 00:50:13;;;;;;;79.40;36.90;;;;;;;-5.63;74.52;99032.00;209430;1298;138996;-67
2022/11/21 00:55:17;;;;;;;71.10;36.50;;;;;;;-5.60;74.71;99024.70;209372;1307;139223;-67
2022/11/21 01:00:21;;;;;;;71.70;36.20;;;;;;;-5.56;74.61;99016.88;209545;1307;139675;-67
2022/11/21 01:05:24;;;;;;;67.20;33.40;;;;;;;-5.57;74.98;99013.17;209782;1300;141183;-68
2022/11/21 01:10:27;;;;;;;66.90;28.20;;;;;;;-5.57;74.60;99011.06;209597;1299;140207;-67
2022/11/21 01:15:33;;;;;;;79.10;39.40;;;;;;;-5.57;74.35;99009.27;209516;1302;140251;-68
2022/11/21 01:20:39;;;;;;;93.60;39.30;;;;;;;-5.56;74.53;99009.16;209509;1301;139714;-64
2022/11/21 01:25:43;;;;;;;85.60;39.80;;;;;;;-5.57;74.83;99014.83;209673;1307;139404;-63
2022/11/21 01:30:46;;;;;;;73.40;35.60;;;;;;;-5.57;75.09;99028.20;209253;1306;139915;-67
2022/11/21 01:35:50;;;;;;;76.80;31.00;;;;;;;-5.56;75.23;99028.30;209485;1307;139808;-66
2022/11/21 01:40:54;;;;;;;69.60;32.30;;;;;;;-5.59;75.20;99022.11;209354;1299;140675;-66
2022/11/21 01:45:59;;;;;;;78.40;34.70;;;;;;;-5.63;74.74;99025.32;209493;1302;139812;-67
2022/11/21 01:51:16;;;;;;;76.00;35.50;;;;;;;-5.61;74.54;99018.73;209443;1304;141397;-67
2022/11/21 01:56:20;;;;;;;74.80;33.40;;;;;;;-5.66;74.66;99020.19;209657;1301;140765;-67
2022/11/21 02:01:25;;;;;;;62.30;31.70;;;;;;;-5.76;74.72;99019.64;209562;1293;139385;-67
2022/11/21 02:06:30;;;;;;;48.80;22.90;;;;;;;-5.87;74.71;99028.19;210257;1296;140290;-68
2022/11/21 02:11:40;;;;;;;74.90;31.50;;;;;;;-5.95;74.97;99031.05;210143;1295;140255;-67
2022/11/21 02:16:46;;;;;;;74.00;31.30;;;;;;;-5.96;75.16;99020.23;210138;1295;140931;-66
2022/11/21 02:21:58;;;;;;;62.80;31.00;;;;;;;-6.00;75.12;99021.48;210126;1293;139238;-66
2022/11/21 02:27:02;;;;;;;43.60;21.70;;;;;;;-6.09;74.75;99023.67;209882;1303;139398;-66
2022/11/21 02:32:05;;;;;;;75.20;36.20;;;;;;;-6.21;74.41;99020.70;210132;1297;139786;-66
2022/11/21 02:37:09;;;;;;;79.20;34.40;;;;;;;-6.24;74.48;99023.97;210037;1296;141383;-66
2022/11/21 02:42:54;;;;;;;54.30;26.30;;;;;;;-6.22;74.80;99024.48;210612;1287;140352;-66
2022/11/21 02:47:58;;;;;;;52.90;23.40;;;;;;;-6.42;74.22;99025.80;209287;1294;141102;-64
2022/11/21 02:53:10;;;;;;;69.20;31.30;;;;;;;-6.56;74.77;99015.25;210008;1301;139870;-65
2022/11/21 02:58:13;;;;;;;73.50;34.40;;;;;;;-6.58;75.11;99010.38;210080;1297;140826;-64
2022/11/21 03:03:17;;;;;;;76.10;33.00;;;;;;;-6.51;75.33;98991.41;210782;1295;140409;-65
2022/11/21 03:08:20;;;;;;;77.00;31.90;;;;;;;-6.51;75.05;98984.81;210341;1291;140042;-65
2022/11/21 03:13:24;;;;;;;63.30;29.50;;;;;;;-6.49;74.57;98989.55;210025;1300;141249;-65
2022/11/21 03:18:27;;;;;;;51.30;24.20;;;;;;;-6.52;74.46;98994.48;210199;1286;141403;-65
2022/11/21 03:23:31;;;;;;;55.00;28.10;;;;;;;-6.67;74.31;98992.58;210547;1295;140693;-65
2022/11/21 03:28:34;;;;;;;58.90;25.60;;;;;;;-6.83;74.71;98993.23;210676;1298;139701;-65
2022/11/21 03:33:37;;;;;;;67.20;26.50;;;;;;;-6.94;74.80;98988.02;209827;1296;139821;-65
2022/11/21 03:38:41;;;;;;;47.60;25.00;;;;;;;-6.89;74.88;98982.52;210371;1295;141118;-65
2022/11/21 03:43:44;;;;;;;36.00;15.20;;;;;;;-6.88;75.01;98980.89;210202;1291;141130;-64
2022/11/21 03:48:48;;;;;;;59.40;28.00;;;;;;;-6.95;75.09;98973.23;210118;1292;139742;-65
2022/11/21 03:53:51;;;;;;;53.70;28.90;;;;;;;-6.99;75.42;98955.70;210149;1296;140113;-66
2022/11/21 03:58:55;;;;;;;55.90;29.40;;;;;;;-6.89;75.86;98946.14;210299;1292;139909;-65
2022/11/21 04:03:59;;;;;;;52.50;25.40;;;;;;;-6.84;75.73;98941.52;210404;1295;140657;-65
2022/11/21 04:09:03;;;;;;;59.70;27.40;;;;;;;-6.83;75.76;98940.89;210248;1288;140172;-65
2022/11/21 04:14:06;;;;;;;48.90;23.00;;;;;;;-6.72;75.55;98940.06;210612;1300;140225;-63
2022/11/21 04:19:10;;;;;;;53.50;23.00;;;;;;;-6.68;75.09;98938.59;210245;1295;140566;-65
2022/11/21 04:24:13;;;;;;;61.90;24.90;;;;;;;-6.70;74.77;98936.41;210202;1297;140754;-64
2022/11/21 04:29:17;;;;;;;55.20;28.40;;;;;;;-6.80;74.76;98937.65;210226;1293;141082;-62
2022/11/21 04:34:21;;;;;;;49.20;24.50;;;;;;;-6.88;74.80;98926.83;210634;1297;141012;-62
2022/11/21 04:39:25;;;;;;;43.90;24.90;;;;;;;-6.98;75.03;98905.16;210549;1295;139694;-62
2022/11/21 04:44:28;;;;;;;54.50;20.70;;;;;;;-7.00;75.29;98893.63;210063;1290;141077;-64
2022/11/21 04:49:33;;;;;;;40.20;18.60;;;;;;;-7.05;75.52;98898.10;210144;1294;140109;-64
2022/11/21 04:54:37;;;;;;;89.40;31.60;;;;;;;-7.07;75.52;98896.06;210527;1289;139635;-64
2022/11/21 04:59:41;;;;;;;74.50;31.70;;;;;;;-7.03;75.70;98884.80;210491;1295;141453;-63
2022/11/21 05:04:45;;;;;;;70.50;30.60;;;;;;;-6.92;75.99;98881.47;210220;1296;139523;-64
2022/11/21 05:09:48;;;;;;;71.30;35.70;;;;;;;-6.83;76.42;98877.33;210161;1296;140254;-63
2022/11/21 05:14:52;;;;;;;47.80;27.00;;;;;;;-6.75;76.62;98877.23;210318;1294;139496;-62
2022/11/21 05:19:56;;;;;;;65.90;29.50;;;;;;;-6.70;76.79;98872.63;210096;1288;140138;-64
2022/11/21 05:24:59;;;;;;;61.30;25.70;;;;;;;-6.54;76.95;98867.42;210223;1294;140902;-64
2022/11/21 05:30:03;;;;;;;57.90;28.30;;;;;;;-6.38;76.88;98859.14;210226;1288;139830;-62
2022/11/21 05:35:07;;;;;;;59.60;30.20;;;;;;;-6.28;77.10;98861.11;210301;1281;139002;-62
2022/11/21 05:40:11;;;;;;;56.10;28.40;;;;;;;-6.25;76.66;98868.30;209977;1281;140444;-63
2022/11/21 05:45:14;;;;;;;53.70;26.30;;;;;;;-6.22;76.97;98858.96;209975;1288;140515;-64
2022/11/21 05:50:18;;;;;;;49.20;20.50;;;;;;;-6.18;77.32;98853.71;210315;1274;139440;-65
2022/11/21 05:55:22;;;;;;;42.00;19.90;;;;;;;-6.09;77.47;98851.14;210746;1281;140331;-64
2022/11/21 06:00:26;;;;;;;32.80;15.60;;;;;;;-5.90;77.79;98849.02;210116;1291;235124;-65
2022/11/21 06:05:29;;;;;;;37.50;16.50;;;;;;;-5.73;77.93;98854.80;210069;1294;141282;-64
2022/11/21 06:10:32;;;;;;;44.00;21.10;;;;;;;-5.63;78.54;98855.01;210333;1288;139583;-65
2022/11/21 06:15:36;;;;;;;35.70;17.60;;;;;;;-5.52;78.55;98849.22;210557;1304;140807;-65
2022/11/21 06:20:39;;;;;;;38.10;19.40;;;;;;;-5.35;78.82;98847.66;210623;1281;140396;-64
2022/11/21 06:25:44;;;;;;;27.10;10.50;;;;;;;-5.24;79.20;98848.45;209914;1288;139722;-65
2022/11/21 06:30:50;;;;;;;31.80;18.40;;;;;;;-5.06;79.02;98845.36;209983;1297;139462;-66
2022/11/21 06:36:00;;;;;;;47.30;22.80;;;;;;;-4.90;79.24;98842.69;210227;1284;139419;-66
2022/11/21 06:41:09;;;;;;;39.70;18.80;;;;;;;-4.63;79.09;98837.91;209890;1290;139932;-66
2022/11/21 06:46:16;;;;;;;35.50;19.20;;;;;;;-4.41;79.09;98843.37;210591;1295;140601;-65
2022/11/21 06:51:23;;;;;;;37.60;19.30;;;;;;;-3.86;79.02;98854.85;209924;1295;139812;-62
2022/11/21 06:56:29;;;;;;;39.50;19.70;;;;;;;-3.36;78.71;98861.73;209916;1291;141293;-64
2022/11/21 07:01:32;;;;;;;43.10;22.30;;;;;;;-2.89;78.49;98862.70;210011;1287;141446;-63
2022/11/21 07:06:37;;;;;;;30.60;17.60;;;;;;;-2.82;77.96;98858.64;210004;1295;140457;-64
2022/11/21 07:11:40;;;;;;;33.60;20.90;;;;;;;-2.90;77.91;98858.50;210168;1297;139381;-64
2022/11/21 07:16:45;;;;;;;39.40;22.00;;;;;;;-2.90;77.89;98856.67;209727;1283;140748;-66
2022/11/21 07:21:48;;;;;;;42.80;20.40;;;;;;;-2.94;77.95;98849.65;210237;1295;140891;-63
2022/11/21 07:26:51;;;;;;;37.40;17.60;;;;;;;-2.81;77.86;98849.46;210345;1295;139858;-62
2022/11/21 07:31:55;;;;;;;36.90;18.00;;;;;;;-2.79;77.97;98837.85;209965;1288;140035;-63
2022/11/21 07:36:58;;;;;;;28.70;16.50;;;;;;;-2.69;77.95;98830.63;210031;1303;140761;-64
2022/11/21 07:42:02;;;;;;;37.00;18.10;;;;;;;-2.57;78.13;98813.52;210095;1296;141164;-64
2022/11/21 07:47:05;;;;;;;41.50;20.60;;;;;;;-2.50;77.87;98801.17;210035;1288;141213;-64
2022/11/21 07:52:09;;;;;;;33.40;18.70;;;;;;;-2.41;77.81;98796.66;209681;1297;142429;-67
2022/11/21 07:57:13;;;;;;;38.40;20.50;;;;;;;-2.34;78.05;98787.08;209000;1297;141064;-64
2022/11/21 08:02:19;;;;;;;35.00;18.90;;;;;;;-2.24;77.90;98778.79;210149;1292;139941;-64
2022/11/21 08:07:23;;;;;;;43.40;24.10;;;;;;;-2.16;78.13;98776.92;209878;1297;140207;-61
2022/11/21 08:12:27;;;;;;;38.90;20.70;;;;;;;-1.98;77.99;98776.83;210082;1297;139591;-62
2022/11/21 08:17:32;;;;;;;51.00;25.20;;;;;;;-1.77;78.27;98773.20;209998;1296;139725;-62
2022/11/21 08:22:40;;;;;;;50.70;23.20;;;;;;;-1.60;78.14;98767.29;210296;1297;139923;-63
2022/11/21 08:27:45;;;;;;;39.60;18.30;;;;;;;-1.33;78.23;98768.68;210348;1287;139645;-61
2022/11/21 08:32:49;;;;;;;41.20;20.60;;;;;;;-1.10;78.04;98764.70;210178;1296;140525;-63
2022/11/21 08:37:59;;;;;;;45.20;23.70;;;;;;;-0.94;77.98;98761.16;210267;1303;139563;-63
2022/11/21 08:43:06;;;;;;;42.00;24.00;;;;;;;-0.72;77.97;98755.23;210451;1297;140040;-63
2022/11/21 08:48:10;;;;;;;36.80;22.50;;;;;;;-0.50;78.40;98760.72;210143;1289;141544;-63
2022/11/21 08:53:15;;;;;;;42.50;23.60;;;;;;;-0.43;77.68;98759.73;210110;1299;141023;-63
2022/11/21 08:58:18;;;;;;;39.60;19.50;;;;;;;-0.47;77.82;98757.45;210191;1288;140143;-64
2022/11/21 09:03:22;;;;;;;62.00;23.30;;;;;;;-0.38;77.93;98752.33;209973;1280;141043;-63
2022/11/21 09:08:33;;;;;;;36.50;21.10;;;;;;;-0.24;77.92;98744.14;210306;1296;229082;-64
2022/11/21 09:13:36;;;;;;;45.30;22.10;;;;;;;-0.13;77.82;98736.78;210019;1295;139806;-63
2022/11/21 09:18:40;;;;;;;43.20;22.50;;;;;;;0.03;77.48;98730.44;210134;1295;139742;-67
2022/11/21 09:23:44;;;;;;;51.00;26.50;;;;;;;0.19;77.63;98730.98;210091;1287;139691;-65
2022/11/21 09:28:49;;;;;;;40.90;23.60;;;;;;;0.32;77.45;98723.06;210368;1287;141330;-61
2022/11/21 09:33:52;;;;;;;41.30;22.30;;;;;;;0.40;77.33;98724.23;209933;1288;244049;-62
2022/11/21 09:38:57;;;;;;;50.60;24.50;;;;;;;0.41;76.82;98716.34;210051;1293;141476;-65
2022/11/21 09:44:39;;;;;;;50.50;26.60;;;;;;;0.34;77.00;98708.80;210056;1293;139132;-66
2022/11/21 09:49:48;;;;;;;41.90;23.70;;;;;;;0.27;77.07;98698.66;210204;1295;139806;-66
2022/11/21 09:54:58;;;;;;;58.60;27.00;;;;;;;0.21;77.26;98693.30;210180;1294;140985;-65
2022/11/21 10:00:13;;;;;;;46.50;23.60;;;;;;;0.18;77.01;98682.20;210036;1288;140594;-65
2022/11/21 10:05:25;;;;;;;45.60;24.10;;;;;;;0.17;77.10;98679.01;210173;1295;141481;-61
2022/11/21 10:10:53;;;;;;;39.40;22.30;;;;;;;0.21;77.32;98682.05;210258;1303;139403;-65
2022/11/21 10:16:19;;;;;;;49.70;27.30;;;;;;;0.31;77.39;98678.63;210005;1297;140600;-64
2022/11/21 10:21:23;;;;;;;53.50;28.90;;;;;;;0.41;77.33;98676.29;210401;1297;140157;-68
2022/11/21 10:26:49;;;;;;;46.70;23.70;;;;;;;0.58;77.71;98672.96;209932;1298;139551;-63
2022/11/21 10:31:57;;;;;;;53.80;30.00;;;;;;;0.74;77.74;98672.58;210184;1295;159483;-65
2022/11/21 10:37:17;;;;;;;48.00;25.90;;;;;;;0.93;77.43;98679.20;210009;1296;140970;-65
2022/11/21 10:45:15;;;;;;;50.70;29.70;;;;;;;1.12;77.26;98674.16;210015;1295;140224;-65
2022/11/21 10:48:27;;;;;;;43.00;25.60;;;;;;;1.28;77.33;98667.58;209678;1297;141588;-65
2022/11/21 10:58:56;;;;;;;45.50;25.80;;;;;;;1.58;77.43;98657.77;209603;1281;400902;-66
2022/11/21 11:04:14;;;;;;;45.30;26.30;;;;;;;1.72;76.73;98653.36;209946;1294;141159;-63
2022/11/21 11:09:39;;;;;;;49.60;27.50;;;;;;;1.85;76.87;98646.58;210391;1295;139534;-65
2022/11/21 11:14:50;;;;;;;48.80;29.20;;;;;;;2.01;76.75;98642.05;210223;1296;139814;-67
2022/11/21 11:20:04;;;;;;;56.80;30.30;;;;;;;2.12;76.72;98636.89;210307;1296;138864;-66
2022/11/21 11:25:08;;;;;;;55.70;30.50;;;;;;;2.22;76.19;98638.42;210063;1287;141121;-63
2022/11/21 11:30:16;;;;;;;59.10;28.60;;;;;;;2.33;76.32;98647.74;210586;1297;140539;-66
2022/11/21 11:35:32;;;;;;;53.80;28.10;;;;;;;2.33;76.49;98656.73;210128;1288;140352;-63
2022/11/21 11:40:41;;;;;;;49.00;29.70;;;;;;;2.44;76.14;98658.98;210218;1295;141045;-66
2022/11/21 11:51:46;;;;;;;50.60;28.00;;;;;;;2.70;76.43;98652.71;210773;1295;140094;-66
2022/11/21 11:56:51;;;;;;;42.30;23.10;;;;;;;2.82;76.22;98647.70;210646;1295;139926;-66
2022/11/21 12:02:04;;;;;;;44.10;24.80;;;;;;;2.87;76.16;98646.26;210271;1296;140556;-67
2022/11/21 12:07:21;;;;;;;51.50;24.50;;;;;;;2.89;75.97;98644.42;210082;1288;140308;-67
2022/11/21 12:12:51;;;;;;;48.50;28.80;;;;;;;3.02;76.07;98648.32;210249;1288;225110;-67
2022/11/21 12:18:04;;;;;;;55.60;31.00;;;;;;;3.11;76.06;98647.27;210374;1298;139391;-67
2022/11/21 12:23:09;;;;;;;56.50;31.80;;;;;;;3.03;75.77;98644.71;210181;1297;139483;-67
2022/11/21 12:28:26;;;;;;;61.00;32.80;;;;;;;2.98;75.61;98639.76;210331;1288;139886;-68
2022/11/21 12:33:35;;;;;;;52.10;30.20;;;;;;;2.88;75.72;98640.09;210193;1286;140958;-67
2022/11/21 12:38:50;;;;;;;40.00;23.30;;;;;;;2.85;75.82;98644.81;210622;1288;139892;-68
2022/11/21 12:44:30;;;;;;;45.50;27.40;;;;;;;2.83;75.85;98641.70;210668;1300;150588;-68
2022/11/21 12:56:00;;;;;;;54.10;33.70;;;;;;;2.72;75.71;98639.92;210156;1297;140490;-68
2022/11/21 13:01:17;;;;;;;61.20;31.70;;;;;;;2.66;76.33;98647.60;210160;1295;140327;-67
2022/11/21 13:06:31;;;;;;;52.00;30.10;;;;;;;2.69;76.22;98640.02;210554;1298;139691;-67
2022/11/21 13:11:58;;;;;;;69.50;35.70;;;;;;;2.77;76.29;98640.85;210598;1297;139319;-67
2022/11/21 13:17:11;;;;;;;48.00;27.70;;;;;;;2.76;76.28;98643.36;210233;1287;140035;-66
2022/11/21 13:22:36;;;;;;;45.90;28.20;;;;;;;2.76;76.30;98643.37;210177;1289;139616;-67
2022/11/21 13:27:41;;;;;;;49.10;28.90;;;;;;;2.81;76.17;98643.05;209731;1297;140822;-68
2022/11/21 13:32:48;;;;;;;56.50;29.20;;;;;;;2.77;76.33;98645.10;210258;1292;140589;-68
2022/11/21 13:37:53;;;;;;;58.70;31.90;;;;;;;2.79;76.25;98642.05;210345;1295;140500;-68
2022/11/21 13:43:03;;;;;;;59.10;30.80;;;;;;;2.77;76.32;98646.96;210179;1300;141217;-68
2022/11/21 13:48:29;;;;;;;53.20;31.30;;;;;;;2.78;76.49;98658.70;210585;1296;219786;-68
2022/11/21 13:54:14;;;;;;;47.90;27.30;;;;;;;2.84;76.37;98662.05;210261;1300;140143;-69
2022/11/21 13:59:49;;;;;;;51.60;29.30;;;;;;;2.82;76.45;98656.89;209837;1297;224047;-68
2022/11/21 14:05:24;;;;;;;56.10;32.10;;;;;;;2.86;76.32;98657.69;210482;1296;139949;-69
2022/11/21 14:10:32;;;;;;;66.00;33.40;;;;;;;2.82;76.36;98664.14;210647;1293;141199;-64
2022/11/21 14:15:50;;;;;;;56.50;27.10;;;;;;;2.78;76.62;98663.52;210297;1291;141006;-64
2022/11/21 14:20:58;;;;;;;61.30;32.80;;;;;;;2.76;76.37;98660.98;209928;1296;140923;-66
2022/11/21 14:26:10;;;;;;;58.10;32.70;;;;;;;2.79;76.64;98668.77;210400;1297;141131;-68
2022/11/21 14:31:14;;;;;;;47.60;25.30;;;;;;;2.75;76.56;98668.44;210572;1301;140423;-67
2022/11/21 14:36:23;;;;;;;61.90;32.60;;;;;;;2.73;76.40;98661.73;210173;1295;139904;-66
2022/11/21 14:41:33;;;;;;;54.10;29.00;;;;;;;2.74;76.34;98660.24;210112;1296;139937;-67
2022/11/21 14:46:38;;;;;;;54.40;28.20;;;;;;;2.69;76.42;98667.06;210002;1287;150146;-67
2022/11/21 14:51:47;;;;;;;61.40;30.40;;;;;;;2.63;76.50;98669.34;210034;1297;139710;-64
2022/11/21 14:57:00;;;;;;;62.70;36.10;;;;;;;2.62;76.62;98675.91;210109;1295;140431;-65
2022/11/21 15:02:13;;;;;;;65.20;31.10;;;;;;;2.59;76.71;98673.01;210315;1295;139940;-67
2022/11/21 15:07:23;;;;;;;64.30;32.30;;;;;;;2.57;76.83;98677.86;210020;1296;141288;-68
2022/11/21 15:12:45;;;;;;;76.60;37.50;;;;;;;2.66;76.88;98677.35;210056;1300;139503;-68
2022/11/21 15:17:55;;;;;;;70.90;38.20;;;;;;;2.69;76.79;98678.06;210012;1281;139502;-68
2022/11/21 15:23:32;;;;;;;56.90;31.40;;;;;;;2.68;76.87;98679.08;210087;1297;244602;-68
2022/11/21 15:28:37;;;;;;;64.40;31.80;;;;;;;2.65;76.99;98676.14;210040;1295;139474;-67
2022/11/21 15:34:25;;;;;;;53.80;31.20;;;;;;;2.66;76.85;98671.84;210039;1301;150929;-69
2022/11/21 15:39:44;;;;;;;76.50;39.70;;;;;;;2.65;76.88;98677.02;209831;1306;226539;-69
2022/11/21 15:45:13;;;;;;;66.80;41.50;;;;;;;2.63;77.26;98672.75;210117;1295;139196;-72
2022/11/21 15:50:24;;;;;;;68.90;34.10;;;;;;;2.60;77.18;98677.33;210032;1287;139391;-64
2022/11/21 15:55:30;;;;;;;74.50;33.40;;;;;;;2.64;77.14;98674.24;210066;1295;139906;-68
2022/11/21 16:00:34;;;;;;;67.50;32.90;;;;;;;2.65;77.17;98672.63;210038;1284;140754;-67
2022/11/21 16:05:40;;;;;;;87.70;44.80;;;;;;;2.65;77.44;98668.57;210143;1292;139132;-64
2022/11/21 16:10:48;;;;;;;;;;;;;;;2.67;77.69;98667.59;209080;1294;139737;-69
2022/11/21 16:16:01;;;;;;;69.30;39.40;;;;;;;2.64;77.64;98673.36;210841;1286;126735;-63
2022/11/21 16:21:10;;;;;;;82.00;40.70;;;;;;;2.67;77.67;98672.05;210243;1295;138760;-68
2022/11/21 16:26:29;;;;;;;76.50;39.50;;;;;;;2.77;77.64;98671.45;210159;1295;245032;-69
2022/11/21 16:31:40;;;;;;;72.00;40.50;;;;;;;2.83;77.88;98678.06;210080;1294;140656;-68
2022/11/21 16:36:47;;;;;;;72.30;38.00;;;;;;;2.85;77.64;98680.69;210056;1297;140297;-67
2022/11/21 16:41:56;;;;;;;67.90;35.90;;;;;;;2.82;77.72;98681.91;210054;1297;220266;-68
2022/11/21 16:47:01;;;;;;;65.70;32.80;;;;;;;2.80;77.50;98678.00;210185;1288;139781;-68
2022/11/21 16:52:13;;;;;;;68.40;37.80;;;;;;;2.85;77.74;98675.19;210072;1295;139964;-66
2022/11/21 16:57:18;;;;;;;70.10;39.60;;;;;;;2.88;78.08;98676.25;209945;1293;139704;-62
2022/11/21 17:02:25;;;;;;;83.70;43.30;;;;;;;2.84;78.06;98680.09;210235;1298;139652;-63
2022/11/21 17:07:32;;;;;;;68.80;35.20;;;;;;;2.84;78.25;98678.66;209982;1288;139655;-63
2022/11/21 17:12:41;;;;;;;70.60;36.70;;;;;;;2.83;77.89;98675.91;210095;1297;139620;-66
2022/11/21 17:17:48;;;;;;;80.60;40.80;;;;;;;2.80;78.00;98674.96;210001;1302;140662;-66
2022/11/21 17:22:54;;;;;;;71.60;38.40;;;;;;;2.82;78.46;98684.30;209899;1297;139930;-71
2022/11/21 17:28:02;;;;;;;67.70;41.10;;;;;;;2.87;78.54;98681.73;209960;1297;140479;-70
2022/11/21 17:33:08;;;;;;;61.10;33.30;;;;;;;2.88;78.51;98677.76;209874;1295;140819;-68
2022/11/21 17:38:12;;;;;;;74.60;41.40;;;;;;;2.92;78.49;98677.45;209827;1294;141473;-68
2022/11/21 17:43:16;;;;;;;81.70;39.00;;;;;;;2.95;78.56;98678.54;209836;1294;140519;-68
2022/11/21 17:48:20;;;;;;;71.50;38.50;;;;;;;2.97;78.86;98676.70;209930;1286;149625;-69
2022/11/21 17:53:25;;;;;;;64.30;35.80;;;;;;;2.95;78.74;98683.60;210032;1298;141457;-69
2022/11/21 17:58:32;;;;;;;59.60;33.10;;;;;;;2.92;78.76;98687.30;208546;1290;138873;-65
2022/11/21 18:03:36;;;;;;;68.30;35.80;;;;;;;2.98;78.81;98693.51;209795;1297;141752;-64
2022/11/21 18:08:43;;;;;;;61.40;37.90;;;;;;;3.03;79.13;98696.48;210163;1297;141178;-64
2022/11/21 18:13:49;;;;;;;62.40;34.50;;;;;;;3.02;79.16;98703.41;209885;1289;140012;-65
2022/11/21 18:18:53;;;;;;;66.20;32.70;;;;;;;3.01;79.18;98704.55;209925;1291;140073;-71
2022/11/21 18:23:58;;;;;;;70.20;34.40;;;;;;;3.04;79.09;98709.89;209903;1294;140043;-73
2022/11/21 18:29:06;;;;;;;60.10;35.50;;;;;;;3.03;79.16;98708.27;209888;1289;141240;-63
2022/11/21 18:34:29;;;;;;;57.40;32.80;;;;;;;3.07;79.58;98706.78;209950;1282;222503;-70
2022/11/21 18:39:33;;;;;;;75.10;36.30;;;;;;;3.06;79.44;98709.88;209797;1296;248325;-63
2022/11/21 18:44:36;;;;;;;75.10;35.30;;;;;;;3.11;79.30;98713.83;210082;1301;140506;-66
2022/11/21 18:49:40;;;;;;;64.30;33.50;;;;;;;3.13;79.72;98721.11;210165;1300;140022;-69
2022/11/21 18:54:46;;;;;;;47.50;27.90;;;;;;;3.04;79.48;98724.52;210042;1291;139776;-68
2022/11/21 18:59:51;;;;;;;57.00;27.90;;;;;;;2.99;79.43;98734.89;210007;1301;139388;-67
2022/11/21 19:04:55;;;;;;;60.20;32.20;;;;;;;3.02;79.24;98738.29;210013;1293;140356;-64
2022/11/21 19:09:59;;;;;;;71.60;35.80;;;;;;;2.97;79.31;98747.14;210103;1287;140517;-63
2022/11/21 19:15:23;;;;;;;74.60;35.80;;;;;;;2.93;79.37;98750.30;210162;1298;139827;-64
2022/11/21 19:20:28;;;;;;;70.60;32.70;;;;;;;2.89;79.10;98755.78;210275;1297;139894;-64
2022/11/21 19:25:36;;;;;;;59.90;31.40;;;;;;;2.87;78.91;98765.19;209997;1301;140069;-64
2022/11/21 19:30:40;;;;;;;58.90;32.20;;;;;;;2.74;78.75;98766.38;210013;1281;140637;-65
2022/11/21 19:35:44;;;;;;;60.80;31.80;;;;;;;2.65;78.71;98766.20;210082;1295;140563;-64
2022/11/21 19:46:13;;;;;;;58.00;27.90;;;;;;;2.49;78.29;98783.19;210137;1293;139790;-65
2022/11/21 19:51:18;;;;;;;52.00;30.60;;;;;;;2.44;78.53;98790.26;210006;1303;140457;-68
2022/11/21 19:56:24;;;;;;;59.90;30.90;;;;;;;2.36;78.47;98796.70;210151;1290;140658;-68
2022/11/21 20:01:31;;;;;;;59.90;31.60;;;;;;;2.25;78.32;98795.86;209978;1297;140903;-65
2022/11/21 20:06:37;;;;;;;47.50;24.90;;;;;;;2.15;78.14;98796.08;210081;1287;140773;-67
2022/11/21 20:11:45;;;;;;;53.80;27.40;;;;;;;2.06;78.40;98797.91;210117;1297;139579;-67
2022/11/21 20:16:50;;;;;;;64.30;32.60;;;;;;;2.01;77.91;98805.91;209883;1294;141036;-67
2022/11/21 20:21:54;;;;;;;66.50;34.60;;;;;;;1.86;77.91;98809.38;210062;1297;140993;-67
2022/11/21 20:26:59;;;;;;;63.30;38.80;;;;;;;1.78;78.41;98819.89;210170;1297;139866;-67
2022/11/21 20:32:02;;;;;;;69.50;35.90;;;;;;;1.71;78.41;98827.83;210113;1288;139659;-67
2022/11/21 20:37:06;;;;;;;67.80;30.40;;;;;;;1.67;78.17;98836.08;209905;1298;139818;-67
2022/11/21 20:42:10;;;;;;;66.60;33.30;;;;;;;1.73;78.30;98838.55;210105;1297;140543;-67
2022/11/21 20:47:15;;;;;;;65.70;34.20;;;;;;;1.72;78.02;98843.45;210030;1297;140663;-67
2022/11/21 20:52:20;;;;;;;67.60;29.80;;;;;;;1.66;78.05;98849.08;210028;1295;140050;-63
2022/11/21 20:57:44;;;;;;;74.10;31.00;;;;;;;1.62;77.93;98850.40;210145;1291;140463;-66
2022/11/21 21:02:48;;;;;;;65.10;31.20;;;;;;;1.61;78.06;98852.30;209943;1297;139549;-67
2022/11/21 21:07:52;;;;;;;60.90;34.80;;;;;;;1.61;77.89;98850.28;210075;1297;139541;-65
2022/11/21 21:12:56;;;;;;;67.10;36.00;;;;;;;1.56;77.95;98852.81;210005;1293;140037;-65
2022/11/21 21:18:00;;;;;;;63.00;29.10;;;;;;;1.51;77.77;98854.59;210011;1297;139559;-66
2022/11/21 21:23:04;;;;;;;58.40;28.90;;;;;;;1.44;77.90;98850.08;210144;1288;140460;-64
2022/11/21 21:28:08;;;;;;;76.30;33.70;;;;;;;1.43;77.49;98848.63;210100;1287;140036;-68
2022/11/21 21:33:15;;;;;;;66.00;31.40;;;;;;;1.40;77.89;98854.47;210158;1296;139334;-68
2022/11/21 21:38:19;;;;;;;49.90;22.80;;;;;;;1.35;77.86;98851.87;210193;1295;139996;-63
2022/11/21 21:43:23;;;;;;;65.00;30.30;;;;;;;1.27;77.63;98855.11;210070;1298;139900;-69
2022/11/21 21:48:26;;;;;;;63.20;30.10;;;;;;;1.31;77.59;98848.38;210008;1297;140245;-70
2022/11/21 21:53:31;;;;;;;59.10;30.20;;;;;;;1.35;77.85;98849.77;210115;1288;140732;-66
2022/11/21 21:58:40;;;;;;;68.90;32.80;;;;;;;1.37;78.07;98849.85;209884;1297;141008;-69
2022/11/21 22:03:45;;;;;;;68.00;33.20;;;;;;;1.33;77.77;98844.63;210026;1296;220768;-65
2022/11/21 22:08:49;;;;;;;69.30;32.20;;;;;;;1.28;77.98;98836.40;210155;1297;139026;-65
2022/11/21 22:13:59;;;;;;;63.30;30.50;;;;;;;1.24;77.78;98841.64;210001;1298;138932;-66
2022/11/21 22:19:05;;;;;;;70.50;33.30;;;;;;;1.26;77.63;98841.81;210177;1287;139480;-67
2022/11/21 22:24:15;;;;;;;78.90;34.40;;;;;;;1.29;78.05;98839.92;209809;1298;140805;-67
2022/11/21 22:29:28;;;;;;;73.20;33.40;;;;;;;1.29;77.76;98844.29;210127;1295;235113;-67
2022/11/21 22:34:32;;;;;;;66.10;29.50;;;;;;;1.23;77.79;98837.52;209290;1297;139730;-67
2022/11/21 22:39:37;;;;;;;70.50;29.30;;;;;;;1.23;78.24;98838.73;210119;1296;140541;-66
2022/11/21 22:44:40;;;;;;;75.50;32.80;;;;;;;1.21;78.00;98831.08;210186;1288;140482;-68
2022/11/21 22:49:44;;;;;;;81.70;32.30;;;;;;;1.26;77.74;98826.98;209904;1295;139676;-67
2022/11/21 22:54:48;;;;;;;88.50;41.30;;;;;;;1.24;77.82;98827.23;210109;1297;139843;-66
2022/11/21 22:59:52;;;;;;;77.50;32.60;;;;;;;1.20;77.89;98821.70;209860;1297;390024;-67
2022/11/21 23:04:56;;;;;;;81.70;33.40;;;;;;;1.18;77.94;98835.78;210233;1295;139413;-68
2022/11/21 23:10:00;;;;;;;63.20;30.70;;;;;;;1.13;78.07;98834.98;210104;1288;140997;-63
2022/11/21 23:15:05;;;;;;;70.80;31.40;;;;;;;1.13;78.27;98834.14;210100;1297;140285;-64
2022/11/21 23:20:09;;;;;;;83.60;38.90;;;;;;;1.18;77.70;98830.30;210131;1297;140610;-65
2022/11/21 23:25:13;;;;;;;73.10;33.50;;;;;;;1.22;78.12;98819.95;209918;1295;139959;-64
2022/11/21 23:30:17;;;;;;;76.40;35.00;;;;;;;1.18;78.06;98816.48;210184;1297;139735;-67
2022/11/21 23:35:21;;;;;;;81.30;35.70;;;;;;;1.12;78.00;98809.35;210225;1295;141015;-69
2022/11/21 23:40:25;;;;;;;90.60;30.90;;;;;;;1.00;77.76;98799.48;210690;1291;139240;-69